createdAt,value
2022-12-09T00:00:30.086Z,2.10
2022-12-09T00:02:58.223Z,2.20
2022-12-09T00:05:25.613Z,2.20
2022-12-09T00:07:52.522Z,2.20
2022-12-09T00:10:19.351Z,2.20
2022-12-09T00:12:46.313Z,2.20
2022-12-09T00:15:13.130Z,2.20
2022-12-09T00:17:40.010Z,2.20
2022-12-09T00:20:07.900Z,2.20
2022-12-09T00:22:34.901Z,2.20
2022-12-09T00:25:01.833Z,2.20
2022-12-09T00:27:28.844Z,2.20
2022-12-09T00:29:56.031Z,2.20
2022-12-09T00:32:23.080Z,2.20
2022-12-09T00:34:50.015Z,2.20
2022-12-09T00:37:17.069Z,2.20
2022-12-09T00:39:43.982Z,2.20
2022-12-09T00:42:10.787Z,2.20
2022-12-09T00:44:37.522Z,2.20
2022-12-09T00:47:04.498Z,2.20
2022-12-09T00:49:31.271Z,2.30
2022-12-09T00:51:58.060Z,2.30
2022-12-09T00:54:25.219Z,2.50
2022-12-09T00:56:51.963Z,2.40
2022-12-09T00:59:18.700Z,2.20
2022-12-09T01:01:45.559Z,2.00
2022-12-09T01:04:12.747Z,2.00
2022-12-09T01:06:39.583Z,2.00
2022-12-09T01:09:06.646Z,1.90
2022-12-09T01:11:33.449Z,2.00
2022-12-09T01:14:03.077Z,1.90
2022-12-09T01:16:32.509Z,1.90
2022-12-09T01:19:01.800Z,2.00
2022-12-09T01:21:30.002Z,1.90
2022-12-09T01:23:56.899Z,1.90
2022-12-09T01:26:24.172Z,1.90
2022-12-09T01:28:52.964Z,1.90
2022-12-09T01:31:23.315Z,1.90
2022-12-09T01:33:50.663Z,2.00
2022-12-09T01:36:24.543Z,2.00
2022-12-09T01:38:52.050Z,2.10
2022-12-09T01:41:20.807Z,2.10
2022-12-09T01:44:07.512Z,2.10
2022-12-09T01:46:34.713Z,2.10
2022-12-09T01:49:01.793Z,2.10
2022-12-09T01:51:30.475Z,2.10
2022-12-09T01:53:57.848Z,2.10
2022-12-09T01:56:32.892Z,2.10
2022-12-09T01:59:04.206Z,2.10
2022-12-09T02:01:31.421Z,2.10
2022-12-09T02:03:58.997Z,2.10
2022-12-09T02:06:25.884Z,2.00
2022-12-09T02:08:54.063Z,1.90
2022-12-09T02:11:42.631Z,1.90
2022-12-09T02:14:25.726Z,1.90
2022-12-09T02:17:11.307Z,1.90
2022-12-09T02:20:02.661Z,1.90
2022-12-09T02:22:38.465Z,1.90
2022-12-09T02:25:22.568Z,1.90
2022-12-09T02:28:04.479Z,1.90
2022-12-09T02:30:54.929Z,1.90
2022-12-09T02:33:34.500Z,2.00
2022-12-09T02:36:08.748Z,2.00
2022-12-09T02:38:38.248Z,2.00
2022-12-09T02:41:14.432Z,2.00
2022-12-09T02:43:50.128Z,2.10
2022-12-09T02:46:20.758Z,2.10
2022-12-09T02:48:59.294Z,2.10
2022-12-09T02:51:29.798Z,2.10
2022-12-09T02:54:07.030Z,2.10
2022-12-09T02:56:35.014Z,2.20
2022-12-09T02:59:01.950Z,2.10
2022-12-09T03:02:04.623Z,2.20
2022-12-09T03:04:32.342Z,2.20
2022-12-09T03:07:17.791Z,2.20
2022-12-09T03:09:48.387Z,2.20
2022-12-09T03:12:20.025Z,2.20
2022-12-09T03:14:52.784Z,2.20
2022-12-09T03:17:27.563Z,2.20
2022-12-09T03:19:58.899Z,2.20
2022-12-09T03:22:29.355Z,2.10
2022-12-09T03:25:04.876Z,2.20
2022-12-09T03:27:40.577Z,2.20
2022-12-09T03:30:09.854Z,2.30
2022-12-09T03:32:38.664Z,2.30
2022-12-09T03:35:10.837Z,2.20
2022-12-09T03:37:40.732Z,2.30
2022-12-09T03:40:14.069Z,2.20
2022-12-09T03:43:21.496Z,2.30
2022-12-09T03:45:49.050Z,2.20
2022-12-09T03:48:16.151Z,2.20
2022-12-09T03:50:53.023Z,2.30
2022-12-09T03:53:31.221Z,2.30
2022-12-09T03:56:15.349Z,2.40
2022-12-09T03:58:45.192Z,2.30
2022-12-09T04:01:12.917Z,2.40
2022-12-09T04:03:40.022Z,2.30
2022-12-09T04:06:07.499Z,2.40
2022-12-09T04:08:34.573Z,2.40
2022-12-09T04:11:01.517Z,2.30
2022-12-09T04:13:28.323Z,2.30
2022-12-09T04:15:55.414Z,2.30
2022-12-09T04:18:22.477Z,2.20
2022-12-09T04:20:49.611Z,2.20
2022-12-09T04:23:16.448Z,2.20
2022-12-09T04:25:43.278Z,2.30
2022-12-09T04:28:10.271Z,2.30
2022-12-09T04:30:37.381Z,2.30
2022-12-09T04:33:04.539Z,2.20
2022-12-09T04:35:31.295Z,2.20
2022-12-09T04:37:58.053Z,2.10
2022-12-09T04:40:25.110Z,2.20
2022-12-09T04:42:52.133Z,2.10
2022-12-09T04:45:19.114Z,2.10
2022-12-09T04:47:45.903Z,2.20
2022-12-09T04:50:13.963Z,2.10
2022-12-09T04:52:41.769Z,2.10
2022-12-09T04:55:09.939Z,2.00
2022-12-09T04:57:37.018Z,2.00
2022-12-09T05:00:07.155Z,2.00
2022-12-09T05:02:34.942Z,2.00
2022-12-09T05:05:02.058Z,2.00
2022-12-09T05:07:31.439Z,2.00
2022-12-09T05:09:59.180Z,2.00
2022-12-09T05:12:26.440Z,2.00
2022-12-09T05:14:53.494Z,1.90
2022-12-09T05:17:20.532Z,1.90
2022-12-09T05:19:48.017Z,1.80
2022-12-09T05:22:17.812Z,1.90
2022-12-09T05:24:46.801Z,1.80
2022-12-09T05:27:14.927Z,1.70
2022-12-09T05:29:41.891Z,1.60
2022-12-09T05:32:09.108Z,1.60
2022-12-09T05:34:36.556Z,1.60
2022-12-09T05:37:03.716Z,1.50
2022-12-09T05:39:31.017Z,1.50
2022-12-09T05:41:58.235Z,1.50
2022-12-09T05:44:25.177Z,1.50
2022-12-09T05:46:52.762Z,1.40
2022-12-09T05:49:19.718Z,1.30
2022-12-09T05:51:46.677Z,1.40
2022-12-09T05:54:13.651Z,1.30
2022-12-09T05:56:44.657Z,1.30
2022-12-09T05:59:15.069Z,1.30
2022-12-09T06:01:42.112Z,1.30
2022-12-09T06:04:09.383Z,1.20
2022-12-09T06:06:36.995Z,1.20
2022-12-09T06:09:04.406Z,1.10
2022-12-09T06:11:32.671Z,1.10
2022-12-09T06:14:00.231Z,0.90
2022-12-09T06:16:27.468Z,0.90
2022-12-09T06:18:55.195Z,0.80
2022-12-09T06:21:22.808Z,0.70
2022-12-09T06:23:51.657Z,0.70
2022-12-09T06:26:27.804Z,0.60
2022-12-09T06:28:56.080Z,0.50
2022-12-09T06:31:23.982Z,0.50
2022-12-09T06:33:56.443Z,0.60
2022-12-09T06:36:26.069Z,0.60
2022-12-09T06:38:54.761Z,0.60
2022-12-09T06:41:21.960Z,0.60
2022-12-09T06:43:49.418Z,0.60
2022-12-09T06:46:23.513Z,0.60
2022-12-09T06:48:51.372Z,0.60
2022-12-09T06:51:19.221Z,0.60
2022-12-09T06:53:46.971Z,0.70
2022-12-09T06:56:15.575Z,0.70
2022-12-09T06:58:44.394Z,0.70
2022-12-09T07:01:18.267Z,0.70
2022-12-09T07:03:49.136Z,0.80
2022-12-09T07:06:27.862Z,0.80
2022-12-09T07:08:56.640Z,0.80
2022-12-09T07:11:24.722Z,0.90
2022-12-09T07:13:52.176Z,0.90
2022-12-09T07:16:19.384Z,0.90
2022-12-09T07:18:46.835Z,1.00
2022-12-09T07:21:16.901Z,0.90
2022-12-09T07:23:44.709Z,0.90
2022-12-09T07:26:12.525Z,0.90
2022-12-09T07:28:42.614Z,0.90
2022-12-09T07:31:36.571Z,1.00
2022-12-09T07:34:04.903Z,1.00
2022-12-09T07:36:34.377Z,1.00
2022-12-09T07:39:07.887Z,1.00
2022-12-09T07:41:35.320Z,1.00
2022-12-09T07:44:02.665Z,1.00
2022-12-09T07:46:29.955Z,1.10
2022-12-09T07:48:57.803Z,1.10
2022-12-09T07:51:26.007Z,1.10
2022-12-09T07:53:54.064Z,1.10
2022-12-09T07:56:22.574Z,1.10
2022-12-09T07:58:53.515Z,1.20
2022-12-09T08:01:27.532Z,1.30
2022-12-09T08:03:55.653Z,1.40
2022-12-09T08:06:25.130Z,1.30
2022-12-09T08:08:52.967Z,1.30
2022-12-09T08:11:22.674Z,1.50
2022-12-09T08:13:53.105Z,1.60
2022-12-09T08:16:22.017Z,1.60
2022-12-09T08:18:50.541Z,1.60
2022-12-09T08:21:24.209Z,1.50
2022-12-09T08:23:52.358Z,1.50
2022-12-09T08:26:23.030Z,1.60
2022-12-09T08:28:50.901Z,1.50
2022-12-09T08:31:24.634Z,1.60
2022-12-09T08:33:53.961Z,1.70
2022-12-09T08:36:24.096Z,1.90
2022-12-09T08:38:51.157Z,1.90
2022-12-09T08:41:37.537Z,1.90
2022-12-09T08:44:17.425Z,1.90
2022-12-09T08:46:47.343Z,1.80
2022-12-09T08:49:19.048Z,1.80
2022-12-09T08:51:47.517Z,1.90
2022-12-09T08:54:14.627Z,1.80
2022-12-09T08:56:48.466Z,1.90
2022-12-09T08:59:16.391Z,2.00
2022-12-09T09:01:43.888Z,2.00
2022-12-09T09:04:13.558Z,2.10
2022-12-09T09:06:43.351Z,2.10
2022-12-09T09:09:12.548Z,2.10
2022-12-09T09:11:44.029Z,2.30
2022-12-09T09:14:13.307Z,2.40
2022-12-09T09:16:42.013Z,2.40
2022-12-09T09:19:12.760Z,2.30
2022-12-09T09:21:40.134Z,2.40
2022-12-09T09:24:12.811Z,2.50
2022-12-09T09:26:42.559Z,2.60
2022-12-09T09:29:18.244Z,2.70
2022-12-09T09:31:48.731Z,2.60
2022-12-09T09:34:18.054Z,2.60
2022-12-09T09:36:49.164Z,2.80
2022-12-09T09:39:16.189Z,2.80
2022-12-09T09:42:07.742Z,2.70
2022-12-09T09:44:46.276Z,2.60
2022-12-09T09:47:13.341Z,2.70
2022-12-09T09:49:46.997Z,2.80
2022-12-09T09:52:19.891Z,2.70
2022-12-09T09:54:49.538Z,2.80
2022-12-09T09:57:32.796Z,2.80
2022-12-09T10:00:18.326Z,3.00
2022-12-09T10:02:58.768Z,3.00
2022-12-09T10:05:40.256Z,3.10
2022-12-09T10:08:46.935Z,3.10
2022-12-09T10:11:17.247Z,3.10
2022-12-09T10:13:51.674Z,3.00
2022-12-09T10:16:24.003Z,3.00
2022-12-09T10:19:24.629Z,3.30
2022-12-09T10:21:54.708Z,3.60
2022-12-09T10:24:47.908Z,3.50
2022-12-09T10:27:34.376Z,3.50
2022-12-09T10:30:11.590Z,3.70
2022-12-09T10:32:40.321Z,3.80
2022-12-09T10:35:26.936Z,4.10
2022-12-09T10:38:13.290Z,4.40
2022-12-09T10:40:46.968Z,4.40
2022-12-09T10:43:44.218Z,4.50
2022-12-09T10:46:24.339Z,4.50
2022-12-09T10:48:59.202Z,4.30
2022-12-09T10:51:27.425Z,4.20
2022-12-09T10:53:59.099Z,4.20
2022-12-09T10:56:30.028Z,4.00
2022-12-09T10:59:21.685Z,4.10
2022-12-09T11:01:58.511Z,3.80
2022-12-09T11:04:46.137Z,3.70
2022-12-09T11:07:25.015Z,3.60
2022-12-09T11:10:09.529Z,3.50
2022-12-09T11:12:44.149Z,3.20
2022-12-09T11:15:28.685Z,3.30
2022-12-09T11:18:00.555Z,3.60
2022-12-09T11:20:33.674Z,3.50
2022-12-09T11:23:13.386Z,3.60
2022-12-09T11:25:56.423Z,3.80
2022-12-09T11:28:33.012Z,3.90
2022-12-09T11:31:28.383Z,4.00
2022-12-09T11:34:08.425Z,4.00
2022-12-09T11:36:43.682Z,4.10
2022-12-09T11:39:32.939Z,4.30
2022-12-09T11:42:19.821Z,4.40
2022-12-09T11:45:07.210Z,4.60
2022-12-09T11:48:22.957Z,4.70
2022-12-09T11:50:42.364Z,4.70
2022-12-09T11:53:30.760Z,4.80
2022-12-09T11:56:23.005Z,4.90
2022-12-09T11:59:02.357Z,5.10
2022-12-09T12:01:48.280Z,4.90
2022-12-09T12:04:18.532Z,4.60
2022-12-09T12:06:56.763Z,4.80
2022-12-09T12:09:55.198Z,5.30
2022-12-09T12:12:39.112Z,5.50
2022-12-09T12:15:55.396Z,5.30
2022-12-09T12:18:23.081Z,5.20
2022-12-09T12:21:07.805Z,5.20
2022-12-09T12:23:55.784Z,5.00
2022-12-09T12:26:33.297Z,4.70
2022-12-09T12:29:08.389Z,4.50
2022-12-09T12:31:59.235Z,4.70
2022-12-09T12:34:43.231Z,4.50
2022-12-09T12:37:21.892Z,4.40
2022-12-09T12:40:26.381Z,4.30
2022-12-09T12:43:41.806Z,4.40
2022-12-09T12:46:23.292Z,4.20
2022-12-09T12:49:08.687Z,4.20
2022-12-09T12:51:54.423Z,4.00
2022-12-09T12:54:21.488Z,4.00
2022-12-09T12:57:13.783Z,3.90
2022-12-09T12:59:57.520Z,3.90
2022-12-09T13:02:44.563Z,4.00
2022-12-09T13:05:22.897Z,4.00
2022-12-09T13:07:58.917Z,4.10
2022-12-09T13:10:54.961Z,4.00
2022-12-09T13:13:48.413Z,4.10
2022-12-09T13:16:39.159Z,4.20
2022-12-09T13:19:13.844Z,4.30
2022-12-09T13:21:41.146Z,4.20
2022-12-09T13:24:27.128Z,4.30
2022-12-09T13:27:23.401Z,4.40
2022-12-09T13:30:10.035Z,4.50
2022-12-09T13:32:43.361Z,4.40
2022-12-09T13:35:18.864Z,4.30
2022-12-09T13:37:45.644Z,4.30
2022-12-09T13:40:39.101Z,4.20
2022-12-09T13:43:17.574Z,4.20
2022-12-09T13:45:44.409Z,4.30
2022-12-09T13:48:16.641Z,4.40
2022-12-09T13:50:51.415Z,4.40
2022-12-09T13:53:21.109Z,4.10
2022-12-09T13:55:58.041Z,4.20
2022-12-09T13:58:37.645Z,4.10
2022-12-09T14:01:26.529Z,4.20
2022-12-09T14:03:59.189Z,4.20
2022-12-09T14:06:44.668Z,4.20
2022-12-09T14:09:23.364Z,4.30
2022-12-09T14:11:52.353Z,4.30
2022-12-09T14:14:25.306Z,4.00
2022-12-09T14:16:55.895Z,4.20
2022-12-09T14:19:25.438Z,4.00
2022-12-09T14:22:17.760Z,4.00
2022-12-09T14:24:55.676Z,3.80
2022-12-09T14:27:27.471Z,3.80
2022-12-09T14:30:23.422Z,3.80
2022-12-09T14:32:50.133Z,3.70
2022-12-09T14:35:22.387Z,3.70
2022-12-09T14:38:00.826Z,3.60
2022-12-09T14:40:42.969Z,3.70
2022-12-09T14:43:25.170Z,3.70
2022-12-09T14:46:01.876Z,3.80
2022-12-09T14:48:34.846Z,3.90
2022-12-09T14:51:22.800Z,3.90
2022-12-09T14:53:58.140Z,3.90
2022-12-09T14:56:26.774Z,3.90
2022-12-09T14:59:03.022Z,3.60
2022-12-09T15:01:30.094Z,3.50
2022-12-09T15:03:59.170Z,3.50
2022-12-09T15:06:27.042Z,3.40
2022-12-09T15:08:56.553Z,3.40
2022-12-09T15:11:31.566Z,3.40
2022-12-09T15:14:20.980Z,3.40
2022-12-09T15:16:50.938Z,3.30
2022-12-09T15:19:51.611Z,3.30
2022-12-09T15:22:33.816Z,3.30
2022-12-09T15:25:02.935Z,3.10
2022-12-09T15:27:29.964Z,3.20
2022-12-09T15:30:09.200Z,3.20
2022-12-09T15:32:39.423Z,3.20
2022-12-09T15:35:23.556Z,3.20
2022-12-09T15:37:52.765Z,3.10
2022-12-09T15:40:22.453Z,3.20
2022-12-09T15:42:56.241Z,3.20
2022-12-09T15:45:27.081Z,3.30
2022-12-09T15:48:03.092Z,3.20
2022-12-09T15:50:35.963Z,3.10
2022-12-09T15:53:16.721Z,3.00
2022-12-09T15:55:51.254Z,3.00
2022-12-09T15:58:27.015Z,3.00
2022-12-09T16:00:54.672Z,3.00
2022-12-09T16:03:33.058Z,2.90
2022-12-09T16:06:04.214Z,2.90
2022-12-09T16:08:37.581Z,3.00
2022-12-09T16:11:05.295Z,2.90
2022-12-09T16:13:32.469Z,2.90
2022-12-09T16:16:01.437Z,2.90
2022-12-09T16:18:52.168Z,2.90
2022-12-09T16:21:27.555Z,2.90
2022-12-09T16:24:04.423Z,2.80
2022-12-09T16:26:35.328Z,2.90
2022-12-09T16:29:14.192Z,2.90
2022-12-09T16:31:41.137Z,3.00
2022-12-09T16:34:22.136Z,2.90
2022-12-09T16:36:56.501Z,2.80
2022-12-09T16:39:26.264Z,2.80
2022-12-09T16:41:52.919Z,2.70
2022-12-09T16:44:27.089Z,2.70
2022-12-09T16:47:14.514Z,2.70
2022-12-09T16:49:44.345Z,2.80
2022-12-09T16:52:22.367Z,2.90
2022-12-09T16:54:50.568Z,2.80
2022-12-09T16:57:19.659Z,2.70
2022-12-09T16:59:47.012Z,2.80
2022-12-09T17:02:38.117Z,2.80
2022-12-09T17:05:06.056Z,2.80
2022-12-09T17:07:33.034Z,2.60
2022-12-09T17:09:59.790Z,2.60
2022-12-09T17:12:26.584Z,2.60
2022-12-09T17:14:53.518Z,2.50
2022-12-09T17:17:20.437Z,2.50
2022-12-09T17:19:47.294Z,2.50
2022-12-09T17:22:14.171Z,2.50
2022-12-09T17:24:40.988Z,2.50
2022-12-09T17:27:07.847Z,2.40
2022-12-09T17:29:34.660Z,2.50
2022-12-09T17:32:01.480Z,2.60
2022-12-09T17:34:28.360Z,2.40
2022-12-09T17:36:55.276Z,2.30
2022-12-09T17:39:24.573Z,2.40
2022-12-09T17:41:51.342Z,2.30
2022-12-09T17:44:18.137Z,2.20
2022-12-09T17:46:44.862Z,2.20
2022-12-09T17:49:11.633Z,2.10
2022-12-09T17:51:38.417Z,2.20
2022-12-09T17:54:05.574Z,2.10
2022-12-09T17:56:32.536Z,2.10
2022-12-09T17:59:02.805Z,2.00
2022-12-09T18:01:30.217Z,2.00
2022-12-09T18:04:04.415Z,2.00
2022-12-09T18:06:35.335Z,1.90
2022-12-09T18:09:04.073Z,2.00
2022-12-09T18:11:31.003Z,2.00
2022-12-09T18:13:58.305Z,2.00
2022-12-09T18:16:25.168Z,1.90
2022-12-09T18:18:52.409Z,1.80
2022-12-09T18:21:22.139Z,1.80
2022-12-09T18:23:49.022Z,1.60
2022-12-09T18:26:18.489Z,1.60
2022-12-09T18:28:45.499Z,1.60
2022-12-09T18:31:15.429Z,1.60
2022-12-09T18:33:42.861Z,1.60
2022-12-09T18:36:15.787Z,1.50
2022-12-09T18:38:43.120Z,1.40
2022-12-09T18:41:17.017Z,1.40
2022-12-09T18:43:46.783Z,1.40
2022-12-09T18:46:25.980Z,1.30
2022-12-09T18:49:01.343Z,1.30
2022-12-09T18:51:29.157Z,1.30
2022-12-09T18:53:58.452Z,1.30
2022-12-09T18:56:25.838Z,1.30
2022-12-09T18:59:09.513Z,1.20
2022-12-09T19:01:40.859Z,1.20
2022-12-09T19:04:12.854Z,1.20
2022-12-09T19:06:41.468Z,1.20
2022-12-09T19:09:11.679Z,1.10
2022-12-09T19:11:40.539Z,1.10
2022-12-09T19:14:08.732Z,1.10
2022-12-09T19:16:36.148Z,1.00
2022-12-09T19:19:09.209Z,1.00
2022-12-09T19:21:37.357Z,0.90
2022-12-09T19:24:04.305Z,0.90
2022-12-09T19:26:32.662Z,0.80
2022-12-09T19:29:05.911Z,0.70
2022-12-09T19:31:39.075Z,0.70
2022-12-09T19:34:17.546Z,0.60
2022-12-09T19:36:45.254Z,0.60
2022-12-09T19:39:13.787Z,0.50
2022-12-09T19:41:41.432Z,0.50
2022-12-09T19:44:09.834Z,0.50
2022-12-09T19:46:38.448Z,0.40
2022-12-09T19:49:05.495Z,0.40
2022-12-09T19:51:32.575Z,0.40
2022-12-09T19:54:02.161Z,0.30
2022-12-09T19:56:29.584Z,0.30
2022-12-09T19:58:57.132Z,0.30
2022-12-09T20:01:35.221Z,0.20
2022-12-09T20:04:46.893Z,0.20
2022-12-09T20:07:06.389Z,0.10
2022-12-09T20:09:35.150Z,0.10
2022-12-09T20:12:02.043Z,0.00
2022-12-09T20:14:28.870Z,0.00
2022-12-09T20:16:55.809Z,0.00
2022-12-09T20:19:25.029Z,0.00
2022-12-09T20:21:55.399Z,0.00
2022-12-09T20:24:26.635Z,0.00
2022-12-09T20:26:53.515Z,0.00
2022-12-09T20:29:20.317Z,0.10
2022-12-09T20:31:47.205Z,0.00
2022-12-09T20:34:18.904Z,0.00
2022-12-09T20:36:46.151Z,0.00
2022-12-09T20:39:20.968Z,0.00
2022-12-09T20:41:48.448Z,0.10
2022-12-09T20:44:16.079Z,0.10
2022-12-09T20:46:47.222Z,0.10
2022-12-09T20:49:14.106Z,0.10
2022-12-09T20:51:45.106Z,0.10
2022-12-09T20:54:12.641Z,0.20
2022-12-09T20:56:39.820Z,0.20
2022-12-09T20:59:08.742Z,0.20
2022-12-09T21:01:37.190Z,0.10
2022-12-09T21:04:06.434Z,0.10
2022-12-09T21:06:36.655Z,0.10
2022-12-09T21:09:06.658Z,0.20
2022-12-09T21:11:33.700Z,0.20
2022-12-09T21:14:02.699Z,0.20
2022-12-09T21:16:32.546Z,0.30
2022-12-09T21:19:05.760Z,0.40
2022-12-09T21:21:36.995Z,0.40
2022-12-09T21:24:04.622Z,0.40
2022-12-09T21:26:31.608Z,0.30
2022-12-09T21:29:00.543Z,0.40
2022-12-09T21:31:33.767Z,0.30
2022-12-09T21:34:03.449Z,0.30
2022-12-09T21:36:33.472Z,0.40
2022-12-09T21:39:01.405Z,0.30
2022-12-09T21:41:30.892Z,0.40
2022-12-09T21:43:58.040Z,0.30
2022-12-09T21:46:28.395Z,0.40
2022-12-09T21:49:02.981Z,0.40
2022-12-09T21:51:30.970Z,0.50
2022-12-09T21:53:57.738Z,0.50
2022-12-09T21:56:27.556Z,0.40
2022-12-09T21:58:56.650Z,0.40
2022-12-09T22:01:52.953Z,0.40
2022-12-09T22:04:19.841Z,0.40
2022-12-09T22:06:49.118Z,0.50
2022-12-09T22:09:17.606Z,0.40
2022-12-09T22:11:44.881Z,0.50
2022-12-09T22:14:12.115Z,0.50
2022-12-09T22:16:41.869Z,0.40
2022-12-09T22:19:13.732Z,0.40
2022-12-09T22:21:40.632Z,0.30
2022-12-09T22:24:09.225Z,0.30
2022-12-09T22:26:36.376Z,0.30
2022-12-09T22:29:05.731Z,0.30
2022-12-09T22:31:36.457Z,0.30
2022-12-09T22:34:07.359Z,0.30
2022-12-09T22:36:36.819Z,0.30
2022-12-09T22:39:06.896Z,0.30
2022-12-09T22:41:34.459Z,0.20
2022-12-09T22:44:01.510Z,0.20
2022-12-09T22:46:30.922Z,0.20
2022-12-09T22:49:01.686Z,0.20
2022-12-09T22:51:31.653Z,0.20
2022-12-09T22:53:59.366Z,0.10
2022-12-09T22:56:26.728Z,0.10
2022-12-09T22:58:54.277Z,0.20
2022-12-09T23:01:33.498Z,0.10
2022-12-09T23:04:01.171Z,0.10
2022-12-09T23:06:29.171Z,0.10
2022-12-09T23:08:56.755Z,0.20
2022-12-09T23:11:25.701Z,0.10
2022-12-09T23:13:53.387Z,0.20
2022-12-09T23:16:23.296Z,0.10
2022-12-09T23:18:51.429Z,0.10
2022-12-09T23:21:21.474Z,0.10
2022-12-09T23:23:48.379Z,0.10
2022-12-09T23:26:18.090Z,0.00
2022-12-09T23:28:47.626Z,-0.10
2022-12-09T23:31:16.852Z,-0.10
2022-12-09T23:33:45.149Z,-0.10
2022-12-09T23:36:14.808Z,-0.10
2022-12-09T23:38:42.094Z,-0.20
2022-12-09T23:41:10.236Z,-0.30
2022-12-09T23:43:38.390Z,-0.30
2022-12-09T23:46:13.040Z,-0.30
2022-12-09T23:48:42.793Z,-0.40
2022-12-09T23:51:14.779Z,-0.50
2022-12-09T23:53:43.329Z,-0.60
2022-12-09T23:56:15.251Z,-0.70
2022-12-09T23:58:42.825Z,-0.70
